createdAt,value
2019-05-10T00:02:10.749Z,99575.66
2019-05-10T00:04:55.652Z,99567.39
2019-05-10T00:07:42.838Z,99571.30
2019-05-10T00:10:09.026Z,99573.90
2019-05-10T00:12:46.171Z,99572.60
2019-05-10T00:15:13.755Z,99575.18
2019-05-10T00:17:40.087Z,99578.22
2019-05-10T00:20:06.564Z,99588.68
2019-05-10T00:22:32.825Z,99584.29
2019-05-10T00:25:04.824Z,99586.02
2019-05-10T00:27:29.189Z,99583.40
2019-05-10T00:29:55.355Z,99575.59
2019-05-10T00:32:21.463Z,99582.97
2019-05-10T00:34:48.311Z,99584.70
2019-05-10T00:37:18.394Z,99586.87
2019-05-10T00:39:44.597Z,99583.38
2019-05-10T00:42:10.961Z,99587.28
2019-05-10T00:44:39.913Z,99592.91
2019-05-10T00:47:09.052Z,99594.59
2019-05-10T00:49:35.401Z,99588.12
2019-05-10T00:52:01.639Z,99598.98
2019-05-10T00:54:27.969Z,99592.89
2019-05-10T00:56:54.317Z,99595.49
2019-05-10T00:59:20.568Z,99601.59
2019-05-10T01:01:47.203Z,99607.66
2019-05-10T01:04:13.388Z,99605.90
2019-05-10T01:06:39.736Z,99599.42
2019-05-10T01:09:08.367Z,99602.48
2019-05-10T01:11:34.706Z,99612.00
2019-05-10T01:14:01.135Z,99605.55
2019-05-10T01:16:27.443Z,99611.19
2019-05-10T01:18:53.669Z,99611.20
2019-05-10T01:21:22.961Z,99613.81
2019-05-10T01:23:49.505Z,99611.19
2019-05-10T01:26:15.806Z,99612.43
2019-05-10T01:28:42.223Z,99612.87
2019-05-10T01:31:08.695Z,99616.33
2019-05-10T01:33:35.973Z,99615.01
2019-05-10T01:36:02.101Z,99620.22
2019-05-10T01:38:28.237Z,99619.76
2019-05-10T01:40:54.346Z,99624.52
2019-05-10T01:43:20.549Z,99617.97
2019-05-10T01:45:46.769Z,99619.67
2019-05-10T01:48:13.885Z,99620.05
2019-05-10T01:50:40.601Z,99619.63
2019-05-10T01:53:06.838Z,99623.95
2019-05-10T01:55:32.984Z,99619.45
2019-05-10T01:57:59.197Z,99621.19
2019-05-10T02:00:25.753Z,99623.26
2019-05-10T02:02:52.056Z,99622.70
2019-05-10T02:05:18.805Z,99632.14
2019-05-10T02:07:46.199Z,99626.05
2019-05-10T02:10:13.024Z,99632.98
2019-05-10T02:12:39.248Z,99635.08
2019-05-10T02:15:06.555Z,99633.74
2019-05-10T02:17:32.807Z,99637.24
2019-05-10T02:20:00.846Z,99641.41
2019-05-10T02:22:27.060Z,99645.77
2019-05-10T02:24:53.247Z,99645.80
2019-05-10T02:27:19.539Z,99650.03
2019-05-10T02:29:45.694Z,99654.30
2019-05-10T02:32:12.222Z,99658.55
2019-05-10T02:34:38.739Z,99657.72
2019-05-10T02:37:06.074Z,99661.58
2019-05-10T02:39:32.410Z,99664.65
2019-05-10T02:41:58.653Z,99670.72
2019-05-10T02:44:24.891Z,99665.63
2019-05-10T02:46:51.133Z,99669.52
2019-05-10T02:49:17.238Z,99666.42
2019-05-10T02:51:43.555Z,99667.39
2019-05-10T02:54:09.928Z,99672.99
2019-05-10T02:56:37.175Z,99676.02
2019-05-10T02:59:04.595Z,99672.13
2019-05-10T03:01:30.745Z,99672.13
2019-05-10T03:04:00.575Z,99674.33
2019-05-10T03:06:28.779Z,99674.44
2019-05-10T03:08:55.143Z,99677.97
2019-05-10T03:11:21.500Z,99683.20
2019-05-10T03:13:50.402Z,99678.55
2019-05-10T03:16:20.904Z,99677.28
2019-05-10T03:18:50.097Z,99689.30
2019-05-10T03:21:16.551Z,99678.73
2019-05-10T03:23:42.820Z,99682.20
2019-05-10T03:26:09.113Z,99687.36
2019-05-10T03:28:35.310Z,99686.56
2019-05-10T03:31:01.604Z,99689.05
2019-05-10T03:33:27.934Z,99691.58
2019-05-10T03:35:54.316Z,99688.87
2019-05-10T03:38:20.940Z,99692.77
2019-05-10T03:40:47.204Z,99698.00
2019-05-10T03:43:13.407Z,99695.09
2019-05-10T03:45:39.520Z,99696.92
2019-05-10T03:48:05.751Z,99700.24
2019-05-10T03:50:31.885Z,99702.02
2019-05-10T03:52:58.466Z,99690.89
2019-05-10T03:55:24.834Z,99692.91
2019-05-10T03:57:51.091Z,99698.47
2019-05-10T04:00:17.637Z,99705.28
2019-05-10T04:02:43.975Z,99700.08
2019-05-10T04:05:10.417Z,99704.37
2019-05-10T04:07:36.756Z,99707.96
2019-05-10T04:10:04.662Z,99707.33
2019-05-10T04:12:31.184Z,99704.14
2019-05-10T04:14:57.453Z,99708.42
2019-05-10T04:17:24.761Z,99707.91
2019-05-10T04:19:51.197Z,99707.21
2019-05-10T04:22:17.423Z,99713.78
2019-05-10T04:24:43.776Z,99703.20
2019-05-10T04:27:10.023Z,99708.19
2019-05-10T04:29:36.352Z,99710.83
2019-05-10T04:32:02.693Z,99711.69
2019-05-10T04:34:28.840Z,99708.62
2019-05-10T04:36:55.208Z,99716.02
2019-05-10T04:39:21.420Z,99713.39
2019-05-10T04:41:47.729Z,99719.37
2019-05-10T04:44:13.981Z,99721.19
2019-05-10T04:46:40.271Z,99721.54
2019-05-10T04:49:06.381Z,99725.41
2019-05-10T04:51:32.729Z,99724.61
2019-05-10T04:53:58.890Z,99719.88
2019-05-10T04:56:25.137Z,99727.28
2019-05-10T04:58:51.484Z,99723.82
2019-05-10T05:01:17.846Z,99727.17
2019-05-10T05:03:44.126Z,99731.50
2019-05-10T05:06:10.252Z,99733.23
2019-05-10T05:08:36.383Z,99730.68
2019-05-10T05:11:02.748Z,99736.78
2019-05-10T05:13:28.974Z,99738.48
2019-05-10T05:15:55.376Z,99735.84
2019-05-10T05:18:21.843Z,99743.98
2019-05-10T05:20:48.153Z,99743.55
2019-05-10T05:23:14.533Z,99747.06
2019-05-10T05:25:41.923Z,99741.03
2019-05-10T05:28:09.162Z,99753.12
2019-05-10T05:30:38.651Z,99752.77
2019-05-10T05:33:03.881Z,99746.31
2019-05-10T05:35:30.212Z,99751.08
2019-05-10T05:37:56.643Z,99754.15
2019-05-10T05:40:22.954Z,99759.82
2019-05-10T05:42:49.281Z,99765.96
2019-05-10T05:45:15.697Z,99764.30
2019-05-10T05:47:44.632Z,99767.30
2019-05-10T05:50:10.411Z,99770.30
2019-05-10T05:52:36.524Z,99762.50
2019-05-10T05:55:05.354Z,99772.54
2019-05-10T05:57:31.639Z,99773.48
2019-05-10T06:00:04.246Z,99779.51
2019-05-10T06:02:27.171Z,99783.88
2019-05-10T06:04:54.457Z,99786.95
2019-05-10T06:07:20.676Z,99795.16
2019-05-10T06:09:46.882Z,99797.75
2019-05-10T06:12:14.302Z,99799.52
2019-05-10T06:14:42.999Z,99799.52
2019-05-10T06:17:08.962Z,99810.28
2019-05-10T06:19:35.279Z,99809.80
2019-05-10T06:22:04.660Z,99807.99
2019-05-10T06:24:29.747Z,99812.28
2019-05-10T06:26:58.208Z,99817.09
2019-05-10T06:29:24.175Z,99817.95
2019-05-10T06:31:50.400Z,99820.20
2019-05-10T06:34:17.072Z,99825.84
2019-05-10T06:36:43.414Z,99830.25
2019-05-10T06:39:09.773Z,99833.91
2019-05-10T06:41:35.986Z,99841.33
2019-05-10T06:44:02.330Z,99839.59
2019-05-10T06:46:29.675Z,99843.96
2019-05-10T06:49:07.208Z,99845.62
2019-05-10T06:51:25.353Z,99856.14
2019-05-10T06:53:53.778Z,99853.58
2019-05-10T06:56:19.887Z,99859.69
2019-05-10T06:58:46.103Z,99864.53
2019-05-10T07:01:12.436Z,99864.21
2019-05-10T07:03:38.682Z,99871.22
2019-05-10T07:06:04.819Z,99865.19
2019-05-10T07:08:43.269Z,99876.50
2019-05-10T07:10:59.240Z,99882.69
2019-05-10T07:13:25.621Z,99880.95
2019-05-10T07:15:52.799Z,99887.02
2019-05-10T07:18:22.618Z,99900.03
2019-05-10T07:20:47.480Z,99903.47
2019-05-10T07:23:13.635Z,99894.83
2019-05-10T07:25:43.867Z,99904.45
2019-05-10T07:28:09.277Z,99905.31
2019-05-10T07:30:36.666Z,99908.35
2019-05-10T07:33:03.764Z,99912.26
2019-05-10T07:35:30.889Z,99907.16
2019-05-10T07:37:58.488Z,99914.28
2019-05-10T07:40:25.000Z,99915.22
2019-05-10T07:42:51.225Z,99918.86
2019-05-10T07:45:18.910Z,99924.53
2019-05-10T07:47:46.039Z,99933.72
2019-05-10T07:50:13.651Z,99932.05
2019-05-10T07:52:43.642Z,99935.86
2019-05-10T07:55:10.357Z,99938.42
2019-05-10T07:57:36.574Z,99942.50
2019-05-10T08:00:06.106Z,99946.41
2019-05-10T08:02:32.943Z,99949.55
2019-05-10T08:04:59.291Z,99963.81
2019-05-10T08:07:25.641Z,99963.73
2019-05-10T08:09:51.768Z,99960.59
2019-05-10T08:12:19.513Z,99962.97
2019-05-10T08:14:51.882Z,99971.45
2019-05-10T08:17:14.259Z,99973.62
2019-05-10T08:19:40.633Z,99977.69
2019-05-10T08:22:09.498Z,99979.42
2019-05-10T08:24:35.697Z,99986.81
2019-05-10T08:27:07.975Z,99993.83
2019-05-10T08:29:32.867Z,99997.17
2019-05-10T08:31:58.649Z,100000.65
2019-05-10T08:34:28.863Z,100007.09
2019-05-10T08:36:53.037Z,100008.62
2019-05-10T08:39:22.345Z,100009.77
2019-05-10T08:42:03.688Z,100013.19
2019-05-10T08:44:20.957Z,100022.60
2019-05-10T08:46:46.405Z,100021.37
2019-05-10T08:49:13.031Z,100020.53
2019-05-10T08:51:43.796Z,100032.12
2019-05-10T08:54:07.717Z,100042.47
2019-05-10T08:56:33.949Z,100043.34
2019-05-10T08:59:03.083Z,100046.74
2019-05-10T09:01:30.668Z,100050.45
2019-05-10T09:04:00.818Z,100056.58
2019-05-10T09:06:24.863Z,100059.77
2019-05-10T09:08:52.930Z,100067.77
2019-05-10T09:11:19.552Z,100066.28
2019-05-10T09:13:46.424Z,100062.27
2019-05-10T09:16:13.619Z,100066.80
2019-05-10T09:18:46.120Z,100064.66
2019-05-10T09:21:10.579Z,100056.28
2019-05-10T09:23:36.578Z,100054.89
2019-05-10T09:26:10.317Z,100058.48
2019-05-10T09:28:32.195Z,100057.48
2019-05-10T09:31:15.269Z,100065.52
2019-05-10T09:33:28.058Z,100070.84
2019-05-10T09:35:55.199Z,100066.45
2019-05-10T09:38:22.220Z,100079.92
2019-05-10T09:40:52.723Z,100076.61
2019-05-10T09:43:16.616Z,100084.02
2019-05-10T09:45:42.960Z,100079.92
2019-05-10T09:48:11.874Z,100079.92
2019-05-10T09:50:44.062Z,100079.67
2019-05-10T09:53:07.393Z,100094.27
2019-05-10T09:55:34.092Z,100091.31
2019-05-10T09:58:00.497Z,100092.73
2019-05-10T10:00:32.848Z,100100.29
2019-05-10T10:03:01.569Z,100107.69
2019-05-10T10:05:27.916Z,100109.34
2019-05-10T10:07:54.248Z,100109.34
2019-05-10T10:10:28.555Z,100112.98
2019-05-10T10:12:49.002Z,100123.52
2019-05-10T10:15:28.352Z,100123.52
2019-05-10T10:17:43.760Z,100129.59
2019-05-10T10:20:10.126Z,100127.77
2019-05-10T10:22:38.119Z,100132.89
2019-05-10T10:25:07.387Z,100135.44
2019-05-10T10:27:36.091Z,100141.23
2019-05-10T10:30:06.547Z,100150.61
2019-05-10T10:32:34.891Z,100149.61
2019-05-10T10:35:02.877Z,100149.61
2019-05-10T10:37:31.328Z,100153.27
2019-05-10T10:40:03.066Z,100158.50
2019-05-10T10:42:25.817Z,100161.09
2019-05-10T10:44:52.038Z,100168.45
2019-05-10T10:47:22.846Z,100166.33
2019-05-10T10:49:46.817Z,100167.26
2019-05-10T10:52:13.601Z,100158.58
2019-05-10T10:54:40.102Z,100164.28
2019-05-10T10:57:08.038Z,100169.11
2019-05-10T10:59:34.415Z,100163.88
2019-05-10T11:02:27.196Z,100171.71
2019-05-10T11:04:28.600Z,100169.95
2019-05-10T11:07:09.344Z,100167.72
2019-05-10T11:09:22.768Z,100171.20
2019-05-10T11:11:51.107Z,100183.08
2019-05-10T11:14:17.121Z,100175.24
2019-05-10T11:16:46.815Z,100181.34
2019-05-10T11:19:15.483Z,100174.78
2019-05-10T11:21:41.483Z,100177.80
2019-05-10T11:24:10.226Z,100179.51
2019-05-10T11:26:37.059Z,100173.92
2019-05-10T11:29:03.402Z,100165.45
2019-05-10T11:31:31.158Z,100181.34
2019-05-10T11:34:00.919Z,100173.91
2019-05-10T11:36:25.859Z,100179.77
2019-05-10T11:38:58.270Z,100181.14
2019-05-10T11:41:23.768Z,100186.05
2019-05-10T11:43:48.184Z,100183.03
2019-05-10T11:46:14.417Z,100181.67
2019-05-10T11:48:42.124Z,100182.14
2019-05-10T11:51:12.249Z,100193.28
2019-05-10T11:53:36.945Z,100185.91
2019-05-10T11:56:07.942Z,100186.91
2019-05-10T11:58:37.580Z,100188.30
2019-05-10T12:01:03.176Z,100193.20
2019-05-10T12:03:27.688Z,100193.45
2019-05-10T12:06:04.451Z,100188.78
2019-05-10T12:08:22.395Z,100180.38
2019-05-10T12:11:07.148Z,100181.60
2019-05-10T12:13:20.833Z,100186.44
2019-05-10T12:15:46.113Z,100192.25
2019-05-10T12:18:14.757Z,100195.56
2019-05-10T12:20:54.072Z,100203.65
2019-05-10T12:23:13.504Z,100204.62
2019-05-10T12:25:51.081Z,100200.73
2019-05-10T12:28:05.163Z,100206.44
2019-05-10T12:30:35.078Z,100206.98
2019-05-10T12:33:08.985Z,100210.06
2019-05-10T12:35:35.693Z,100209.22
2019-05-10T12:37:56.011Z,100210.98
2019-05-10T12:40:24.133Z,100219.30
2019-05-10T12:42:50.649Z,100218.88
2019-05-10T12:45:17.423Z,100221.10
2019-05-10T12:47:43.748Z,100220.68
2019-05-10T12:50:10.695Z,100218.94
2019-05-10T12:52:37.044Z,100225.91
2019-05-10T12:55:05.219Z,100231.17
2019-05-10T12:57:31.449Z,100229.36
2019-05-10T12:59:57.734Z,100229.34
2019-05-10T13:02:24.043Z,100230.30
2019-05-10T13:04:52.721Z,100229.33
2019-05-10T13:07:18.593Z,100225.05
2019-05-10T13:09:44.885Z,100228.33
2019-05-10T13:12:11.124Z,100229.94
2019-05-10T13:14:40.038Z,100229.80
2019-05-10T13:17:10.039Z,100233.48
2019-05-10T13:19:34.107Z,100232.22
2019-05-10T13:22:00.799Z,100237.67
2019-05-10T13:24:27.373Z,100248.16
2019-05-10T13:26:53.773Z,100242.97
2019-05-10T13:29:20.163Z,100253.50
2019-05-10T13:31:47.484Z,100251.09
2019-05-10T13:34:13.842Z,100256.45
2019-05-10T13:36:39.953Z,100254.30
2019-05-10T13:39:06.345Z,100260.88
2019-05-10T13:41:32.573Z,100263.50
2019-05-10T13:44:04.373Z,100266.58
2019-05-10T13:46:27.153Z,100270.95
2019-05-10T13:48:53.993Z,100269.53
2019-05-10T13:51:21.568Z,100266.09
2019-05-10T13:53:47.943Z,100267.02
2019-05-10T13:56:14.490Z,100266.00
2019-05-10T13:58:40.793Z,100264.24
2019-05-10T14:01:12.963Z,100272.15
2019-05-10T14:03:43.649Z,100272.27
2019-05-10T14:06:03.481Z,100267.05
2019-05-10T14:08:29.863Z,100267.45
2019-05-10T14:11:01.397Z,100273.13
2019-05-10T14:13:24.180Z,100279.22
2019-05-10T14:15:50.579Z,100277.50
2019-05-10T14:18:17.005Z,100278.78
2019-05-10T14:20:43.360Z,100287.10
2019-05-10T14:23:09.731Z,100286.09
2019-05-10T14:25:38.766Z,100288.72
2019-05-10T14:28:09.755Z,100292.25
2019-05-10T14:30:32.856Z,100290.58
2019-05-10T14:32:59.011Z,100294.86
2019-05-10T14:35:25.285Z,100294.02
2019-05-10T14:37:51.694Z,100295.67
2019-05-10T14:40:27.987Z,100298.23
2019-05-10T14:42:46.396Z,100299.95
2019-05-10T14:45:13.146Z,100305.18
2019-05-10T14:47:48.031Z,100301.59
2019-05-10T14:50:09.144Z,100301.67
2019-05-10T14:52:35.375Z,100305.61
2019-05-10T14:55:02.740Z,100302.52
2019-05-10T14:57:29.335Z,100307.17
2019-05-10T14:59:55.563Z,100305.92
2019-05-10T15:02:23.044Z,100311.85
2019-05-10T15:04:50.117Z,100315.39
2019-05-10T15:07:16.738Z,100312.29
2019-05-10T15:09:43.269Z,100316.41
2019-05-10T15:12:10.090Z,100312.17
2019-05-10T15:14:37.681Z,100310.56
2019-05-10T15:17:04.132Z,100308.86
2019-05-10T15:19:31.364Z,100309.31
2019-05-10T15:21:58.049Z,100313.24
2019-05-10T15:24:24.418Z,100318.36
2019-05-10T15:26:50.941Z,100325.16
2019-05-10T15:29:22.500Z,100320.34
2019-05-10T15:31:45.472Z,100316.04
2019-05-10T15:34:11.756Z,100321.25
2019-05-10T15:36:38.188Z,100326.23
2019-05-10T15:39:06.162Z,100328.45
2019-05-10T15:41:32.551Z,100336.86
2019-05-10T15:43:58.791Z,100336.30
2019-05-10T15:46:36.175Z,100336.45
2019-05-10T15:48:53.329Z,100331.20
2019-05-10T15:51:34.110Z,100338.66
2019-05-10T15:53:47.890Z,100336.55
2019-05-10T15:56:14.497Z,100334.01
2019-05-10T15:58:42.578Z,100334.01
2019-05-10T16:01:09.230Z,100336.39
2019-05-10T16:03:35.379Z,100340.64
2019-05-10T16:06:02.975Z,100335.70
2019-05-10T16:08:30.221Z,100340.79
2019-05-10T16:10:57.312Z,100344.33
2019-05-10T16:13:25.176Z,100344.89
2019-05-10T16:15:57.467Z,100337.73
2019-05-10T16:18:20.064Z,100337.73
2019-05-10T16:20:46.405Z,100337.70
2019-05-10T16:23:12.748Z,100347.72
2019-05-10T16:25:42.911Z,100339.23
2019-05-10T16:28:07.355Z,100333.42
2019-05-10T16:30:36.404Z,100333.42
2019-05-10T16:33:01.609Z,100330.25
2019-05-10T16:35:38.394Z,100330.25
2019-05-10T16:37:56.525Z,100340.95
2019-05-10T16:40:23.020Z,100342.63
2019-05-10T16:42:49.433Z,100354.08
2019-05-10T16:45:15.997Z,100354.08
2019-05-10T16:47:42.315Z,100344.31
2019-05-10T16:50:09.065Z,100349.16
2019-05-10T16:52:35.296Z,100349.77
2019-05-10T16:55:03.636Z,100346.34
2019-05-10T16:57:31.911Z,100346.72
2019-05-10T17:00:01.988Z,100339.02
2019-05-10T17:02:26.666Z,100339.02
2019-05-10T17:04:52.923Z,100332.11
2019-05-10T17:07:20.667Z,100341.41
2019-05-10T17:09:49.431Z,100336.44
2019-05-10T17:12:15.678Z,100329.97
2019-05-10T17:14:42.059Z,100329.97
2019-05-10T17:17:08.402Z,100336.13
2019-05-10T17:19:36.160Z,100329.27
2019-05-10T17:22:02.655Z,100334.25
2019-05-10T17:24:29.003Z,100339.41
2019-05-10T17:26:55.369Z,100332.05
2019-05-10T17:29:21.813Z,100332.05
2019-05-10T17:31:48.040Z,100348.44
2019-05-10T17:34:22.103Z,100344.39
2019-05-10T17:36:42.748Z,100349.09
2019-05-10T17:39:12.292Z,100347.69
2019-05-10T17:41:38.537Z,100347.69
2019-05-10T17:44:05.042Z,100348.09
2019-05-10T17:46:31.374Z,100354.99
2019-05-10T17:48:57.924Z,100348.06
2019-05-10T17:51:24.515Z,100349.36
2019-05-10T17:53:55.069Z,100351.64
2019-05-10T17:56:19.185Z,100348.99
2019-05-10T17:58:45.558Z,100347.52
2019-05-10T18:01:11.906Z,100340.66
2019-05-10T18:03:38.433Z,100346.98
2019-05-10T18:06:05.132Z,100354.24
2019-05-10T18:08:31.601Z,100368.27
2019-05-10T18:11:03.973Z,100354.45
2019-05-10T18:13:26.400Z,100358.56
2019-05-10T18:15:53.046Z,100362.56
2019-05-10T18:18:19.472Z,100351.46
2019-05-10T18:20:45.931Z,100351.17
2019-05-10T18:23:20.360Z,100353.05
2019-05-10T18:25:40.529Z,100351.02
2019-05-10T18:28:09.966Z,100352.61
2019-05-10T18:30:36.368Z,100355.89
2019-05-10T18:33:06.856Z,100354.36
2019-05-10T18:35:31.157Z,100364.30
2019-05-10T18:37:59.560Z,100358.70
2019-05-10T18:40:31.763Z,100353.34
2019-05-10T18:42:57.967Z,100369.84
2019-05-10T18:45:23.381Z,100366.56
2019-05-10T18:47:50.154Z,100368.83
2019-05-10T18:50:16.484Z,100371.75
2019-05-10T18:52:42.903Z,100369.69
2019-05-10T18:55:09.478Z,100372.30
2019-05-10T18:57:35.717Z,100375.73
2019-05-10T19:00:03.975Z,100377.91
2019-05-10T19:02:30.438Z,100378.39
2019-05-10T19:04:56.816Z,100372.53
2019-05-10T19:07:23.248Z,100374.31
2019-05-10T19:09:49.554Z,100384.52
2019-05-10T19:12:18.727Z,100381.48
2019-05-10T19:14:44.206Z,100389.06
2019-05-10T19:17:11.131Z,100390.05
2019-05-10T19:19:41.932Z,100390.47
2019-05-10T19:22:08.963Z,100388.74
2019-05-10T19:24:36.071Z,100389.34
2019-05-10T19:27:07.289Z,100384.52
2019-05-10T19:29:31.976Z,100384.08
2019-05-10T19:31:58.321Z,100385.61
2019-05-10T19:34:24.548Z,100388.38
2019-05-10T19:36:51.159Z,100391.78
2019-05-10T19:39:17.599Z,100388.80
2019-05-10T19:41:43.954Z,100398.52
2019-05-10T19:44:10.147Z,100416.22
2019-05-10T19:46:39.474Z,100422.28
2019-05-10T19:49:07.521Z,100418.14
2019-05-10T19:51:33.075Z,100413.55
2019-05-10T19:53:59.309Z,100412.42
2019-05-10T19:56:29.962Z,100410.70
2019-05-10T19:58:53.532Z,100414.91
2019-05-10T20:01:19.920Z,100416.95
2019-05-10T20:03:46.402Z,100424.98
2019-05-10T20:06:12.695Z,100438.25
2019-05-10T20:08:40.064Z,100435.09
2019-05-10T20:11:06.454Z,100435.11
2019-05-10T20:13:33.007Z,100435.91
2019-05-10T20:16:01.458Z,100427.55
2019-05-10T20:18:27.642Z,100429.23
2019-05-10T20:20:54.110Z,100428.53
2019-05-10T20:23:20.359Z,100420.46
2019-05-10T20:25:46.793Z,100431.23
2019-05-10T20:28:13.210Z,100435.81
2019-05-10T20:30:39.578Z,100436.44
2019-05-10T20:33:05.756Z,100435.91
2019-05-10T20:35:32.252Z,100430.44
2019-05-10T20:38:01.829Z,100417.68
2019-05-10T20:40:27.003Z,100424.89
2019-05-10T20:42:54.455Z,100428.70
2019-05-10T20:45:20.832Z,100435.40
2019-05-10T20:47:47.109Z,100428.28
2019-05-10T20:50:14.151Z,100449.66
2019-05-10T20:52:40.455Z,100456.55
2019-05-10T20:55:07.384Z,100461.66
2019-05-10T20:57:33.804Z,100457.17
2019-05-10T21:00:00.274Z,100445.31
2019-05-10T21:02:26.799Z,100444.70
2019-05-10T21:04:53.236Z,100440.56
2019-05-10T21:07:19.652Z,100443.83
2019-05-10T21:09:46.011Z,100436.28
2019-05-10T21:12:13.472Z,100432.92
2019-05-10T21:14:39.727Z,100438.27
2019-05-10T21:17:05.964Z,100437.53
2019-05-10T21:19:32.358Z,100440.47
2019-05-10T21:21:58.844Z,100434.48
2019-05-10T21:24:25.240Z,100430.02
2019-05-10T21:26:51.633Z,100438.41
2019-05-10T21:29:18.098Z,100427.79
2019-05-10T21:31:44.539Z,100421.17
2019-05-10T21:34:10.968Z,100427.93
2019-05-10T21:36:37.306Z,100426.49
2019-05-10T21:39:05.811Z,100425.20
2019-05-10T21:41:32.335Z,100427.05
2019-05-10T21:43:58.686Z,100425.19
2019-05-10T21:46:25.047Z,100428.02
2019-05-10T21:48:51.281Z,100429.69
2019-05-10T21:51:17.438Z,100430.98
2019-05-10T21:53:43.675Z,100435.97
2019-05-10T21:56:09.979Z,100442.86
2019-05-10T21:58:36.335Z,100443.87
2019-05-10T22:01:03.168Z,100440.28
2019-05-10T22:03:31.367Z,100436.36
2019-05-10T22:05:57.605Z,100430.61
2019-05-10T22:08:23.840Z,100431.91
2019-05-10T22:10:50.078Z,100429.02
2019-05-10T22:13:16.320Z,100432.36
2019-05-10T22:15:42.687Z,100425.91
2019-05-10T22:18:09.036Z,100425.83
2019-05-10T22:20:35.357Z,100429.73
2019-05-10T22:23:01.738Z,100419.20
2019-05-10T22:25:28.003Z,100422.15
2019-05-10T22:27:54.092Z,100423.74
2019-05-10T22:30:20.448Z,100421.73
2019-05-10T22:32:46.709Z,100415.52
2019-05-10T22:35:13.278Z,100410.25
2019-05-10T22:37:39.688Z,100404.94
2019-05-10T22:40:06.122Z,100402.75
2019-05-10T22:42:32.355Z,100401.69
2019-05-10T22:44:58.598Z,100405.16
2019-05-10T22:47:25.526Z,100405.08
2019-05-10T22:49:52.055Z,100403.85
2019-05-10T22:52:18.363Z,100406.50
2019-05-10T22:54:44.730Z,100406.30
2019-05-10T22:57:11.104Z,100403.48
2019-05-10T22:59:37.430Z,100397.26
2019-05-10T23:02:03.782Z,100389.90
2019-05-10T23:04:30.103Z,100388.55
2019-05-10T23:06:56.289Z,100395.32
2019-05-10T23:09:24.948Z,100389.20
2019-05-10T23:11:50.637Z,100396.06
2019-05-10T23:14:17.913Z,100391.06
2019-05-10T23:16:44.036Z,100388.63
2019-05-10T23:19:10.242Z,100380.33
2019-05-10T23:21:36.349Z,100376.93
2019-05-10T23:24:04.554Z,100379.53
2019-05-10T23:26:30.792Z,100370.36
2019-05-10T23:28:56.999Z,100369.08
2019-05-10T23:31:23.183Z,100369.72
2019-05-10T23:33:49.447Z,100373.03
2019-05-10T23:36:15.787Z,100370.28
2019-05-10T23:38:42.161Z,100366.67
2019-05-10T23:41:08.674Z,100359.78
2019-05-10T23:43:34.892Z,100349.39
2019-05-10T23:46:01.110Z,100352.18
2019-05-10T23:48:27.204Z,100351.11
2019-05-10T23:50:53.406Z,100356.41
2019-05-10T23:53:19.506Z,100347.40
2019-05-10T23:55:45.905Z,100345.30
2019-05-10T23:58:12.264Z,100337.02
